sensor_id;sensor_type;location;lat;lon;timestamp;P1;durP1;ratioP1;P2;durP2;ratioP2
6111;SDS011;3086;48.802;9.394;2023-02-28T00:02:33;4.40;;;4.00;;
6111;SDS011;3086;48.802;9.394;2023-02-28T00:05:55;4.57;;;4.07;;
6111;SDS011;3086;48.802;9.394;2023-02-28T00:09:16;4.63;;;3.80;;
6111;SDS011;3086;48.802;9.394;2023-02-28T00:12:39;3.77;;;3.47;;
6111;SDS011;3086;48.802;9.394;2023-02-28T00:16:01;4.33;;;3.53;;
6111;SDS011;3086;48.802;9.394;2023-02-28T00:19:23;3.80;;;3.50;;
6111;SDS011;3086;48.802;9.394;2023-02-28T00:22:46;3.80;;;3.50;;
6111;SDS011;3086;48.802;9.394;2023-02-28T00:26:08;4.33;;;3.93;;
6111;SDS011;3086;48.802;9.394;2023-02-28T00:29:31;4.97;;;4.00;;
6111;SDS011;3086;48.802;9.394;2023-02-28T00:32:52;3.83;;;3.50;;
6111;SDS011;3086;48.802;9.394;2023-02-28T00:36:14;4.87;;;3.60;;
6111;SDS011;3086;48.802;9.394;2023-02-28T00:39:36;5.27;;;4.63;;
6111;SDS011;3086;48.802;9.394;2023-02-28T00:42:57;5.13;;;4.63;;
6111;SDS011;3086;48.802;9.394;2023-02-28T00:46:20;4.43;;;4.03;;
6111;SDS011;3086;48.802;9.394;2023-02-28T00:49:42;4.00;;;3.70;;
6111;SDS011;3086;48.802;9.394;2023-02-28T00:53:04;3.83;;;3.43;;
6111;SDS011;3086;48.802;9.394;2023-02-28T00:56:25;5.40;;;4.10;;
6111;SDS011;3086;48.802;9.394;2023-02-28T00:59:47;5.00;;;3.87;;
6111;SDS011;3086;48.802;9.394;2023-02-28T01:03:09;4.03;;;3.73;;
6111;SDS011;3086;48.802;9.394;2023-02-28T01:06:31;4.60;;;4.20;;
6111;SDS011;3086;48.802;9.394;2023-02-28T01:09:52;4.67;;;3.83;;
6111;SDS011;3086;48.802;9.394;2023-02-28T01:13:14;5.10;;;3.83;;
6111;SDS011;3086;48.802;9.394;2023-02-28T01:16:36;5.53;;;3.63;;
6111;SDS011;3086;48.802;9.394;2023-02-28T01:19:59;3.90;;;3.60;;
6111;SDS011;3086;48.802;9.394;2023-02-28T01:23:21;3.37;;;3.10;;
6111;SDS011;3086;48.802;9.394;2023-02-28T01:26:43;3.87;;;3.57;;
6111;SDS011;3086;48.802;9.394;2023-02-28T01:30:05;4.73;;;3.97;;
6111;SDS011;3086;48.802;9.394;2023-02-28T01:33:28;4.47;;;4.07;;
6111;SDS011;3086;48.802;9.394;2023-02-28T01:36:51;4.20;;;3.80;;
6111;SDS011;3086;48.802;9.394;2023-02-28T01:40:13;4.27;;;3.87;;
6111;SDS011;3086;48.802;9.394;2023-02-28T01:47:13;7.43;;;4.37;;
6111;SDS011;3086;48.802;9.394;2023-02-28T01:50:39;4.67;;;3.90;;
6111;SDS011;3086;48.802;9.394;2023-02-28T01:54:05;4.40;;;3.87;;
6111;SDS011;3086;48.802;9.394;2023-02-28T01:57:34;5.37;;;4.17;;
6111;SDS011;3086;48.802;9.394;2023-02-28T02:00:57;5.53;;;4.07;;
6111;SDS011;3086;48.802;9.394;2023-02-28T02:04:19;4.60;;;4.20;;
6111;SDS011;3086;48.802;9.394;2023-02-28T02:07:43;4.53;;;4.13;;
6111;SDS011;3086;48.802;9.394;2023-02-28T02:11:08;5.20;;;4.53;;
6111;SDS011;3086;48.802;9.394;2023-02-28T02:14:36;6.97;;;5.10;;
6111;SDS011;3086;48.802;9.394;2023-02-28T02:18:03;5.63;;;4.90;;
6111;SDS011;3086;48.802;9.394;2023-02-28T02:25:19;6.17;;;4.40;;
6111;SDS011;3086;48.802;9.394;2023-02-28T02:28:55;4.43;;;4.03;;
6111;SDS011;3086;48.802;9.394;2023-02-28T02:36:25;4.67;;;4.20;;
6111;SDS011;3086;48.802;9.394;2023-02-28T02:39:50;4.87;;;4.37;;
6111;SDS011;3086;48.802;9.394;2023-02-28T02:43:16;4.73;;;4.30;;
6111;SDS011;3086;48.802;9.394;2023-02-28T02:46:41;5.03;;;4.53;;
6111;SDS011;3086;48.802;9.394;2023-02-28T02:50:05;5.60;;;4.47;;
6111;SDS011;3086;48.802;9.394;2023-02-28T02:53:32;4.27;;;3.87;;
6111;SDS011;3086;48.802;9.394;2023-02-28T02:56:57;6.93;;;4.50;;
6111;SDS011;3086;48.802;9.394;2023-02-28T03:00:22;5.43;;;4.70;;
6111;SDS011;3086;48.802;9.394;2023-02-28T03:03:45;5.83;;;4.20;;
6111;SDS011;3086;48.802;9.394;2023-02-28T03:07:06;4.83;;;4.40;;
6111;SDS011;3086;48.802;9.394;2023-02-28T03:10:31;7.73;;;5.03;;
6111;SDS011;3086;48.802;9.394;2023-02-28T03:14:04;6.57;;;4.50;;
6111;SDS011;3086;48.802;9.394;2023-02-28T03:17:37;6.23;;;4.60;;
6111;SDS011;3086;48.802;9.394;2023-02-28T03:21:12;6.50;;;4.87;;
6111;SDS011;3086;48.802;9.394;2023-02-28T03:24:40;6.00;;;4.97;;
6111;SDS011;3086;48.802;9.394;2023-02-28T03:28:07;5.00;;;4.50;;
6111;SDS011;3086;48.802;9.394;2023-02-28T03:31:32;5.07;;;4.60;;
6111;SDS011;3086;48.802;9.394;2023-02-28T03:34:58;5.53;;;4.60;;
6111;SDS011;3086;48.802;9.394;2023-02-28T03:38:24;5.90;;;4.67;;
6111;SDS011;3086;48.802;9.394;2023-02-28T03:41:51;6.60;;;5.17;;
6111;SDS011;3086;48.802;9.394;2023-02-28T03:45:16;6.23;;;4.80;;
6111;SDS011;3086;48.802;9.394;2023-02-28T03:48:40;5.97;;;4.73;;
6111;SDS011;3086;48.802;9.394;2023-02-28T03:52:03;4.33;;;3.97;;
6111;SDS011;3086;48.802;9.394;2023-02-28T03:55:28;5.53;;;4.80;;
6111;SDS011;3086;48.802;9.394;2023-02-28T03:58:53;6.20;;;5.33;;
6111;SDS011;3086;48.802;9.394;2023-02-28T04:02:20;6.60;;;4.83;;
6111;SDS011;3086;48.802;9.394;2023-02-28T04:05:48;6.17;;;5.33;;
6111;SDS011;3086;48.802;9.394;2023-02-28T04:09:12;7.07;;;5.00;;
6111;SDS011;3086;48.802;9.394;2023-02-28T04:12:35;5.37;;;4.87;;
6111;SDS011;3086;48.802;9.394;2023-02-28T04:15:56;6.33;;;5.33;;
6111;SDS011;3086;48.802;9.394;2023-02-28T04:19:19;8.20;;;4.90;;
6111;SDS011;3086;48.802;9.394;2023-02-28T04:22:40;5.87;;;4.67;;
6111;SDS011;3086;48.802;9.394;2023-02-28T04:26:02;5.50;;;4.93;;
6111;SDS011;3086;48.802;9.394;2023-02-28T04:29:26;6.10;;;4.57;;
6111;SDS011;3086;48.802;9.394;2023-02-28T04:32:48;8.10;;;5.60;;
6111;SDS011;3086;48.802;9.394;2023-02-28T04:36:11;6.87;;;5.07;;
6111;SDS011;3086;48.802;9.394;2023-02-28T04:39:34;5.70;;;4.80;;
6111;SDS011;3086;48.802;9.394;2023-02-28T04:42:56;5.83;;;5.33;;
6111;SDS011;3086;48.802;9.394;2023-02-28T04:46:18;6.00;;;5.23;;
6111;SDS011;3086;48.802;9.394;2023-02-28T04:49:40;6.07;;;5.47;;
6111;SDS011;3086;48.802;9.394;2023-02-28T04:53:04;5.37;;;4.83;;
6111;SDS011;3086;48.802;9.394;2023-02-28T04:56:25;5.90;;;5.30;;
6111;SDS011;3086;48.802;9.394;2023-02-28T04:59:47;7.73;;;5.57;;
6111;SDS011;3086;48.802;9.394;2023-02-28T05:03:08;5.53;;;4.83;;
6111;SDS011;3086;48.802;9.394;2023-02-28T05:06:30;6.40;;;5.43;;
6111;SDS011;3086;48.802;9.394;2023-02-28T05:09:55;7.07;;;5.30;;
6111;SDS011;3086;48.802;9.394;2023-02-28T05:13:16;6.57;;;5.50;;
6111;SDS011;3086;48.802;9.394;2023-02-28T05:16:38;6.97;;;5.40;;
6111;SDS011;3086;48.802;9.394;2023-02-28T05:19:59;6.53;;;5.37;;
6111;SDS011;3086;48.802;9.394;2023-02-28T05:23:22;5.90;;;5.30;;
6111;SDS011;3086;48.802;9.394;2023-02-28T05:26:45;7.10;;;5.77;;
6111;SDS011;3086;48.802;9.394;2023-02-28T05:30:07;6.27;;;5.67;;
6111;SDS011;3086;48.802;9.394;2023-02-28T05:33:31;6.83;;;6.17;;
6111;SDS011;3086;48.802;9.394;2023-02-28T05:36:52;7.30;;;5.50;;
6111;SDS011;3086;48.802;9.394;2023-02-28T05:40:14;9.40;;;6.10;;
6111;SDS011;3086;48.802;9.394;2023-02-28T05:43:37;6.20;;;5.43;;
6111;SDS011;3086;48.802;9.394;2023-02-28T05:46:59;6.70;;;6.03;;
6111;SDS011;3086;48.802;9.394;2023-02-28T05:50:20;7.83;;;5.67;;
6111;SDS011;3086;48.802;9.394;2023-02-28T05:53:42;6.97;;;5.93;;
6111;SDS011;3086;48.802;9.394;2023-02-28T05:57:03;9.03;;;6.60;;
6111;SDS011;3086;48.802;9.394;2023-02-28T06:00:26;6.27;;;5.57;;
6111;SDS011;3086;48.802;9.394;2023-02-28T06:03:48;9.13;;;6.23;;
6111;SDS011;3086;48.802;9.394;2023-02-28T06:07:09;7.07;;;6.00;;
6111;SDS011;3086;48.802;9.394;2023-02-28T06:10:31;7.50;;;5.80;;
6111;SDS011;3086;48.802;9.394;2023-02-28T06:13:53;8.43;;;6.50;;
6111;SDS011;3086;48.802;9.394;2023-02-28T06:17:16;8.83;;;6.57;;
6111;SDS011;3086;48.802;9.394;2023-02-28T06:20:38;7.97;;;6.47;;
6111;SDS011;3086;48.802;9.394;2023-02-28T06:23:59;8.97;;;6.93;;
6111;SDS011;3086;48.802;9.394;2023-02-28T06:27:21;8.03;;;6.90;;
6111;SDS011;3086;48.802;9.394;2023-02-28T06:30:42;9.33;;;7.10;;
6111;SDS011;3086;48.802;9.394;2023-02-28T06:34:05;8.83;;;6.80;;
6111;SDS011;3086;48.802;9.394;2023-02-28T06:37:27;14.60;;;7.77;;
6111;SDS011;3086;48.802;9.394;2023-02-28T06:40:52;8.60;;;7.00;;
6111;SDS011;3086;48.802;9.394;2023-02-28T06:44:15;9.17;;;6.90;;
6111;SDS011;3086;48.802;9.394;2023-02-28T06:47:37;8.93;;;7.47;;
6111;SDS011;3086;48.802;9.394;2023-02-28T06:51:05;8.00;;;5.90;;
6111;SDS011;3086;48.802;9.394;2023-02-28T06:54:27;7.97;;;7.17;;
6111;SDS011;3086;48.802;9.394;2023-02-28T06:57:48;10.50;;;7.17;;
6111;SDS011;3086;48.802;9.394;2023-02-28T07:01:10;7.77;;;6.93;;
6111;SDS011;3086;48.802;9.394;2023-02-28T07:04:32;7.60;;;6.80;;
6111;SDS011;3086;48.802;9.394;2023-02-28T07:07:55;9.47;;;7.57;;
6111;SDS011;3086;48.802;9.394;2023-02-28T07:11:17;10.10;;;7.43;;
6111;SDS011;3086;48.802;9.394;2023-02-28T07:14:38;8.83;;;7.40;;
6111;SDS011;3086;48.802;9.394;2023-02-28T07:18:00;10.47;;;7.70;;
6111;SDS011;3086;48.802;9.394;2023-02-28T07:21:21;8.47;;;7.57;;
6111;SDS011;3086;48.802;9.394;2023-02-28T07:24:44;8.87;;;7.40;;
6111;SDS011;3086;48.802;9.394;2023-02-28T07:28:06;12.23;;;7.57;;
6111;SDS011;3086;48.802;9.394;2023-02-28T07:31:27;10.27;;;8.33;;
6111;SDS011;3086;48.802;9.394;2023-02-28T07:34:49;10.93;;;7.00;;
6111;SDS011;3086;48.802;9.394;2023-02-28T07:38:10;11.23;;;7.80;;
6111;SDS011;3086;48.802;9.394;2023-02-28T07:41:34;12.37;;;7.53;;
6111;SDS011;3086;48.802;9.394;2023-02-28T07:45:03;9.80;;;7.20;;
6111;SDS011;3086;48.802;9.394;2023-02-28T07:48:26;8.80;;;7.90;;
6111;SDS011;3086;48.802;9.394;2023-02-28T07:51:47;7.93;;;7.03;;
6111;SDS011;3086;48.802;9.394;2023-02-28T07:55:09;11.37;;;7.97;;
6111;SDS011;3086;48.802;9.394;2023-02-28T07:58:32;8.80;;;7.57;;
6111;SDS011;3086;48.802;9.394;2023-02-28T08:01:54;8.47;;;7.23;;
6111;SDS011;3086;48.802;9.394;2023-02-28T08:05:18;11.10;;;7.33;;
6111;SDS011;3086;48.802;9.394;2023-02-28T08:08:39;10.00;;;7.40;;
6111;SDS011;3086;48.802;9.394;2023-02-28T08:12:01;11.37;;;8.53;;
6111;SDS011;3086;48.802;9.394;2023-02-28T08:15:24;9.47;;;7.40;;
6111;SDS011;3086;48.802;9.394;2023-02-28T08:18:45;10.50;;;7.40;;
6111;SDS011;3086;48.802;9.394;2023-02-28T08:22:07;9.10;;;7.77;;
6111;SDS011;3086;48.802;9.394;2023-02-28T08:25:28;9.63;;;7.50;;
6111;SDS011;3086;48.802;9.394;2023-02-28T08:28:50;8.90;;;7.77;;
6111;SDS011;3086;48.802;9.394;2023-02-28T08:32:13;9.67;;;7.93;;
6111;SDS011;3086;48.802;9.394;2023-02-28T08:35:35;11.30;;;8.00;;
6111;SDS011;3086;48.802;9.394;2023-02-28T08:38:57;10.87;;;7.70;;
6111;SDS011;3086;48.802;9.394;2023-02-28T08:42:19;10.60;;;8.17;;
6111;SDS011;3086;48.802;9.394;2023-02-28T08:45:41;9.10;;;8.20;;
6111;SDS011;3086;48.802;9.394;2023-02-28T08:49:04;10.40;;;8.20;;
6111;SDS011;3086;48.802;9.394;2023-02-28T08:52:26;13.97;;;8.80;;
6111;SDS011;3086;48.802;9.394;2023-02-28T08:55:54;11.50;;;8.50;;
6111;SDS011;3086;48.802;9.394;2023-02-28T08:59:17;8.97;;;7.67;;
6111;SDS011;3086;48.802;9.394;2023-02-28T09:02:38;10.60;;;8.17;;
6111;SDS011;3086;48.802;9.394;2023-02-28T09:06:01;12.03;;;8.77;;
6111;SDS011;3086;48.802;9.394;2023-02-28T09:09:24;8.90;;;8.00;;
6111;SDS011;3086;48.802;9.394;2023-02-28T09:12:46;11.10;;;7.93;;
6111;SDS011;3086;48.802;9.394;2023-02-28T09:16:09;10.20;;;7.80;;
6111;SDS011;3086;48.802;9.394;2023-02-28T09:19:32;11.27;;;8.37;;
6111;SDS011;3086;48.802;9.394;2023-02-28T09:22:55;10.10;;;7.87;;
6111;SDS011;3086;48.802;9.394;2023-02-28T09:26:17;9.80;;;8.17;;
6111;SDS011;3086;48.802;9.394;2023-02-28T09:29:39;9.37;;;7.97;;
6111;SDS011;3086;48.802;9.394;2023-02-28T09:33:01;12.30;;;9.63;;
6111;SDS011;3086;48.802;9.394;2023-02-28T09:36:23;12.07;;;8.37;;
6111;SDS011;3086;48.802;9.394;2023-02-28T09:39:47;9.00;;;8.10;;
6111;SDS011;3086;48.802;9.394;2023-02-28T09:43:09;11.80;;;8.67;;
6111;SDS011;3086;48.802;9.394;2023-02-28T09:46:34;12.20;;;9.37;;
6111;SDS011;3086;48.802;9.394;2023-02-28T09:49:57;10.17;;;8.17;;
6111;SDS011;3086;48.802;9.394;2023-02-28T09:53:21;9.43;;;7.93;;
6111;SDS011;3086;48.802;9.394;2023-02-28T09:56:49;11.07;;;8.83;;
6111;SDS011;3086;48.802;9.394;2023-02-28T10:00:13;11.53;;;8.73;;
6111;SDS011;3086;48.802;9.394;2023-02-28T10:03:39;10.60;;;8.20;;
6111;SDS011;3086;48.802;9.394;2023-02-28T10:07:01;9.90;;;8.03;;
6111;SDS011;3086;48.802;9.394;2023-02-28T10:10:27;9.73;;;8.70;;
6111;SDS011;3086;48.802;9.394;2023-02-28T10:13:53;10.43;;;8.57;;
6111;SDS011;3086;48.802;9.394;2023-02-28T10:17:21;9.90;;;8.77;;
6111;SDS011;3086;48.802;9.394;2023-02-28T10:20:45;11.17;;;8.13;;
6111;SDS011;3086;48.802;9.394;2023-02-28T10:24:11;10.87;;;8.43;;
6111;SDS011;3086;48.802;9.394;2023-02-28T10:27:48;9.33;;;7.87;;
6111;SDS011;3086;48.802;9.394;2023-02-28T10:31:13;11.43;;;8.43;;
6111;SDS011;3086;48.802;9.394;2023-02-28T10:34:37;11.37;;;8.87;;
6111;SDS011;3086;48.802;9.394;2023-02-28T10:37:59;10.07;;;8.67;;
6111;SDS011;3086;48.802;9.394;2023-02-28T10:41:31;11.73;;;7.57;;
6111;SDS011;3086;48.802;9.394;2023-02-28T10:45:04;12.67;;;8.90;;
6111;SDS011;3086;48.802;9.394;2023-02-28T10:48:37;10.23;;;8.13;;
6111;SDS011;3086;48.802;9.394;2023-02-28T10:51:59;11.37;;;8.87;;
6111;SDS011;3086;48.802;9.394;2023-02-28T10:55:22;9.87;;;8.50;;
6111;SDS011;3086;48.802;9.394;2023-02-28T10:58:50;11.27;;;9.20;;
6111;SDS011;3086;48.802;9.394;2023-02-28T11:02:30;10.90;;;9.40;;
6111;SDS011;3086;48.802;9.394;2023-02-28T11:05:54;9.70;;;8.63;;
6111;SDS011;3086;48.802;9.394;2023-02-28T11:09:18;8.77;;;7.83;;
6111;SDS011;3086;48.802;9.394;2023-02-28T11:12:45;9.90;;;8.67;;
6111;SDS011;3086;48.802;9.394;2023-02-28T11:16:07;10.00;;;8.40;;
6111;SDS011;3086;48.802;9.394;2023-02-28T11:19:32;9.67;;;8.17;;
6111;SDS011;3086;48.802;9.394;2023-02-28T11:23:03;10.10;;;8.60;;
6111;SDS011;3086;48.802;9.394;2023-02-28T11:26:35;11.00;;;8.67;;
6111;SDS011;3086;48.802;9.394;2023-02-28T11:29:59;9.17;;;8.00;;
6111;SDS011;3086;48.802;9.394;2023-02-28T11:33:22;10.70;;;8.63;;
6111;SDS011;3086;48.802;9.394;2023-02-28T11:36:44;12.10;;;8.80;;
6111;SDS011;3086;48.802;9.394;2023-02-28T11:40:12;13.07;;;8.83;;
6111;SDS011;3086;48.802;9.394;2023-02-28T11:43:38;11.50;;;8.90;;
6111;SDS011;3086;48.802;9.394;2023-02-28T11:47:09;10.77;;;9.37;;
6111;SDS011;3086;48.802;9.394;2023-02-28T11:50:41;12.07;;;7.90;;
6111;SDS011;3086;48.802;9.394;2023-02-28T11:54:13;9.03;;;8.13;;
6111;SDS011;3086;48.802;9.394;2023-02-28T12:01:45;9.47;;;7.67;;
6111;SDS011;3086;48.802;9.394;2023-02-28T12:05:23;11.07;;;8.73;;
6111;SDS011;3086;48.802;9.394;2023-02-28T12:08:55;9.20;;;7.27;;
6111;SDS011;3086;48.802;9.394;2023-02-28T12:12:23;9.57;;;8.37;;
6111;SDS011;3086;48.802;9.394;2023-02-28T12:16:00;8.93;;;8.03;;
6111;SDS011;3086;48.802;9.394;2023-02-28T12:19:42;8.97;;;7.43;;
6111;SDS011;3086;48.802;9.394;2023-02-28T12:23:11;9.70;;;8.07;;
6111;SDS011;3086;48.802;9.394;2023-02-28T12:26:43;11.33;;;9.17;;
6111;SDS011;3086;48.802;9.394;2023-02-28T12:30:06;9.40;;;8.37;;
6111;SDS011;3086;48.802;9.394;2023-02-28T12:33:38;10.73;;;8.80;;
6111;SDS011;3086;48.802;9.394;2023-02-28T12:37:04;11.03;;;8.47;;
6111;SDS011;3086;48.802;9.394;2023-02-28T12:40:29;9.33;;;8.10;;
6111;SDS011;3086;48.802;9.394;2023-02-28T12:43:58;10.70;;;8.90;;
6111;SDS011;3086;48.802;9.394;2023-02-28T12:47:23;10.60;;;7.93;;
6111;SDS011;3086;48.802;9.394;2023-02-28T12:50:46;8.77;;;7.57;;
6111;SDS011;3086;48.802;9.394;2023-02-28T12:54:11;10.90;;;7.97;;
6111;SDS011;3086;48.802;9.394;2023-02-28T12:57:36;9.60;;;8.63;;
6111;SDS011;3086;48.802;9.394;2023-02-28T13:01:06;10.40;;;8.37;;
6111;SDS011;3086;48.802;9.394;2023-02-28T13:04:52;9.73;;;8.10;;
6111;SDS011;3086;48.802;9.394;2023-02-28T13:08:26;9.20;;;8.17;;
6111;SDS011;3086;48.802;9.394;2023-02-28T13:12:00;10.10;;;8.60;;
6111;SDS011;3086;48.802;9.394;2023-02-28T13:15:23;8.50;;;7.57;;
6111;SDS011;3086;48.802;9.394;2023-02-28T13:18:48;7.67;;;6.90;;
6111;SDS011;3086;48.802;9.394;2023-02-28T13:22:17;9.57;;;8.40;;
6111;SDS011;3086;48.802;9.394;2023-02-28T13:25:52;9.00;;;7.67;;
6111;SDS011;3086;48.802;9.394;2023-02-28T13:29:21;9.07;;;7.97;;
6111;SDS011;3086;48.802;9.394;2023-02-28T13:32:45;11.83;;;8.07;;
6111;SDS011;3086;48.802;9.394;2023-02-28T13:36:26;10.07;;;7.60;;
6111;SDS011;3086;48.802;9.394;2023-02-28T13:39:50;11.20;;;8.27;;
6111;SDS011;3086;48.802;9.394;2023-02-28T13:43:14;8.53;;;7.40;;
6111;SDS011;3086;48.802;9.394;2023-02-28T13:50:34;10.07;;;7.77;;
6111;SDS011;3086;48.802;9.394;2023-02-28T13:53:59;9.20;;;7.77;;
6111;SDS011;3086;48.802;9.394;2023-02-28T13:57:24;8.80;;;7.90;;
6111;SDS011;3086;48.802;9.394;2023-02-28T14:01:00;9.13;;;7.97;;
6111;SDS011;3086;48.802;9.394;2023-02-28T14:08:08;8.40;;;7.50;;
6111;SDS011;3086;48.802;9.394;2023-02-28T14:11:36;9.43;;;7.43;;
6111;SDS011;3086;48.802;9.394;2023-02-28T14:14:58;8.70;;;7.07;;
6111;SDS011;3086;48.802;9.394;2023-02-28T14:18:22;8.50;;;7.70;;
6111;SDS011;3086;48.802;9.394;2023-02-28T14:21:50;8.60;;;7.70;;
6111;SDS011;3086;48.802;9.394;2023-02-28T14:25:19;11.33;;;7.93;;
6111;SDS011;3086;48.802;9.394;2023-02-28T14:28:48;10.93;;;8.40;;
6111;SDS011;3086;48.802;9.394;2023-02-28T14:32:19;8.73;;;7.57;;
6111;SDS011;3086;48.802;9.394;2023-02-28T14:35:49;10.90;;;7.27;;
6111;SDS011;3086;48.802;9.394;2023-02-28T14:39:18;8.47;;;7.57;;
6111;SDS011;3086;48.802;9.394;2023-02-28T14:42:46;9.83;;;7.67;;
6111;SDS011;3086;48.802;9.394;2023-02-28T14:46:08;8.83;;;7.20;;
6111;SDS011;3086;48.802;9.394;2023-02-28T14:49:35;9.13;;;7.70;;
6111;SDS011;3086;48.802;9.394;2023-02-28T14:52:59;8.33;;;7.53;;
6111;SDS011;3086;48.802;9.394;2023-02-28T14:56:22;8.63;;;7.77;;
6111;SDS011;3086;48.802;9.394;2023-02-28T14:59:45;8.63;;;7.10;;
6111;SDS011;3086;48.802;9.394;2023-02-28T15:03:17;8.33;;;7.20;;
6111;SDS011;3086;48.802;9.394;2023-02-28T15:06:40;9.03;;;7.63;;
6111;SDS011;3086;48.802;9.394;2023-02-28T15:10:10;8.67;;;7.77;;
6111;SDS011;3086;48.802;9.394;2023-02-28T15:13:36;9.93;;;7.40;;
6111;SDS011;3086;48.802;9.394;2023-02-28T15:17:01;9.27;;;8.17;;
6111;SDS011;3086;48.802;9.394;2023-02-28T15:20:25;8.43;;;7.53;;
6111;SDS011;3086;48.802;9.394;2023-02-28T15:23:48;9.27;;;7.90;;
6111;SDS011;3086;48.802;9.394;2023-02-28T15:27:13;12.10;;;8.83;;
6111;SDS011;3086;48.802;9.394;2023-02-28T15:30:37;13.83;;;8.70;;
6111;SDS011;3086;48.802;9.394;2023-02-28T15:34:02;9.43;;;8.20;;
6111;SDS011;3086;48.802;9.394;2023-02-28T15:37:26;11.90;;;8.37;;
6111;SDS011;3086;48.802;9.394;2023-02-28T15:40:51;10.10;;;8.60;;
6111;SDS011;3086;48.802;9.394;2023-02-28T15:44:16;11.20;;;9.10;;
6111;SDS011;3086;48.802;9.394;2023-02-28T15:47:46;10.47;;;8.53;;
6111;SDS011;3086;48.802;9.394;2023-02-28T15:51:09;8.77;;;7.90;;
6111;SDS011;3086;48.802;9.394;2023-02-28T15:54:36;10.90;;;8.83;;
6111;SDS011;3086;48.802;9.394;2023-02-28T15:57:59;10.67;;;7.93;;
6111;SDS011;3086;48.802;9.394;2023-02-28T16:01:25;10.10;;;8.33;;
6111;SDS011;3086;48.802;9.394;2023-02-28T16:04:55;9.27;;;8.10;;
6111;SDS011;3086;48.802;9.394;2023-02-28T16:08:18;9.30;;;8.30;;
6111;SDS011;3086;48.802;9.394;2023-02-28T16:11:41;11.23;;;9.23;;
6111;SDS011;3086;48.802;9.394;2023-02-28T16:15:06;9.97;;;8.67;;
6111;SDS011;3086;48.802;9.394;2023-02-28T16:18:30;10.87;;;9.00;;
6111;SDS011;3086;48.802;9.394;2023-02-28T16:21:53;12.37;;;10.20;;
6111;SDS011;3086;48.802;9.394;2023-02-28T16:25:15;12.33;;;9.37;;
6111;SDS011;3086;48.802;9.394;2023-02-28T16:28:37;12.73;;;10.73;;
6111;SDS011;3086;48.802;9.394;2023-02-28T16:31:59;14.07;;;9.33;;
6111;SDS011;3086;48.802;9.394;2023-02-28T16:35:24;19.63;;;14.63;;
6111;SDS011;3086;48.802;9.394;2023-02-28T16:38:45;11.93;;;10.00;;
6111;SDS011;3086;48.802;9.394;2023-02-28T16:42:10;10.40;;;8.63;;
6111;SDS011;3086;48.802;9.394;2023-02-28T16:45:36;10.90;;;8.77;;
6111;SDS011;3086;48.802;9.394;2023-02-28T16:48:58;11.70;;;9.70;;
6111;SDS011;3086;48.802;9.394;2023-02-28T16:52:27;12.03;;;9.77;;
6111;SDS011;3086;48.802;9.394;2023-02-28T16:55:48;12.37;;;8.87;;
6111;SDS011;3086;48.802;9.394;2023-02-28T16:59:10;8.87;;;7.97;;
6111;SDS011;3086;48.802;9.394;2023-02-28T17:02:32;11.40;;;9.33;;
6111;SDS011;3086;48.802;9.394;2023-02-28T17:05:54;12.03;;;8.73;;
6111;SDS011;3086;48.802;9.394;2023-02-28T17:09:18;9.77;;;8.10;;
6111;SDS011;3086;48.802;9.394;2023-02-28T17:12:40;9.83;;;8.70;;
6111;SDS011;3086;48.802;9.394;2023-02-28T17:16:02;11.33;;;8.37;;
6111;SDS011;3086;48.802;9.394;2023-02-28T17:19:24;14.67;;;10.40;;
6111;SDS011;3086;48.802;9.394;2023-02-28T17:22:45;9.77;;;8.77;;
6111;SDS011;3086;48.802;9.394;2023-02-28T17:26:10;10.90;;;9.07;;
6111;SDS011;3086;48.802;9.394;2023-02-28T17:29:34;12.90;;;9.80;;
6111;SDS011;3086;48.802;9.394;2023-02-28T17:32:57;14.50;;;11.53;;
6111;SDS011;3086;48.802;9.394;2023-02-28T17:36:20;13.63;;;10.10;;
6111;SDS011;3086;48.802;9.394;2023-02-28T17:39:43;20.07;;;15.10;;
6111;SDS011;3086;48.802;9.394;2023-02-28T17:43:05;14.50;;;9.87;;
6111;SDS011;3086;48.802;9.394;2023-02-28T17:46:27;16.00;;;9.57;;
6111;SDS011;3086;48.802;9.394;2023-02-28T17:49:48;12.80;;;10.53;;
6111;SDS011;3086;48.802;9.394;2023-02-28T17:53:10;13.20;;;11.07;;
6111;SDS011;3086;48.802;9.394;2023-02-28T17:56:32;15.93;;;11.73;;
6111;SDS011;3086;48.802;9.394;2023-02-28T17:59:57;18.40;;;14.33;;
6111;SDS011;3086;48.802;9.394;2023-02-28T18:03:19;11.90;;;9.30;;
6111;SDS011;3086;48.802;9.394;2023-02-28T18:06:41;13.20;;;10.03;;
6111;SDS011;3086;48.802;9.394;2023-02-28T18:10:09;12.03;;;10.13;;
6111;SDS011;3086;48.802;9.394;2023-02-28T18:13:35;12.50;;;9.93;;
6111;SDS011;3086;48.802;9.394;2023-02-28T18:16:57;14.97;;;11.27;;
6111;SDS011;3086;48.802;9.394;2023-02-28T18:20:19;17.50;;;12.97;;
6111;SDS011;3086;48.802;9.394;2023-02-28T18:23:41;15.57;;;12.20;;
6111;SDS011;3086;48.802;9.394;2023-02-28T18:27:07;13.57;;;11.13;;
6111;SDS011;3086;48.802;9.394;2023-02-28T18:30:31;16.23;;;13.53;;
6111;SDS011;3086;48.802;9.394;2023-02-28T18:33:55;14.57;;;11.00;;
6111;SDS011;3086;48.802;9.394;2023-02-28T18:37:16;21.70;;;15.20;;
6111;SDS011;3086;48.802;9.394;2023-02-28T18:40:38;20.57;;;15.23;;
6111;SDS011;3086;48.802;9.394;2023-02-28T18:44:00;21.50;;;16.53;;
6111;SDS011;3086;48.802;9.394;2023-02-28T18:47:22;23.57;;;16.03;;
6111;SDS011;3086;48.802;9.394;2023-02-28T18:50:45;24.03;;;14.83;;
6111;SDS011;3086;48.802;9.394;2023-02-28T18:54:06;23.17;;;14.10;;
6111;SDS011;3086;48.802;9.394;2023-02-28T18:57:29;19.00;;;14.00;;
6111;SDS011;3086;48.802;9.394;2023-02-28T19:00:50;21.50;;;14.10;;
6111;SDS011;3086;48.802;9.394;2023-02-28T19:04:12;24.10;;;14.57;;
6111;SDS011;3086;48.802;9.394;2023-02-28T19:07:35;21.10;;;14.63;;
6111;SDS011;3086;48.802;9.394;2023-02-28T19:10:57;18.67;;;14.73;;
6111;SDS011;3086;48.802;9.394;2023-02-28T19:14:18;18.63;;;13.03;;
6111;SDS011;3086;48.802;9.394;2023-02-28T19:17:40;14.60;;;11.80;;
6111;SDS011;3086;48.802;9.394;2023-02-28T19:21:02;15.03;;;11.50;;
6111;SDS011;3086;48.802;9.394;2023-02-28T19:24:25;19.00;;;15.33;;
6111;SDS011;3086;48.802;9.394;2023-02-28T19:27:50;20.53;;;12.73;;
6111;SDS011;3086;48.802;9.394;2023-02-28T19:31:12;20.13;;;14.20;;
6111;SDS011;3086;48.802;9.394;2023-02-28T19:34:34;18.83;;;14.20;;
6111;SDS011;3086;48.802;9.394;2023-02-28T19:37:56;16.63;;;12.37;;
6111;SDS011;3086;48.802;9.394;2023-02-28T19:41:19;22.70;;;14.47;;
6111;SDS011;3086;48.802;9.394;2023-02-28T19:44:41;16.57;;;12.97;;
6111;SDS011;3086;48.802;9.394;2023-02-28T19:48:04;21.23;;;14.87;;
6111;SDS011;3086;48.802;9.394;2023-02-28T19:51:25;18.47;;;12.50;;
6111;SDS011;3086;48.802;9.394;2023-02-28T19:54:47;21.33;;;12.40;;
6111;SDS011;3086;48.802;9.394;2023-02-28T19:58:10;19.87;;;13.77;;
6111;SDS011;3086;48.802;9.394;2023-02-28T20:01:32;17.13;;;12.87;;
6111;SDS011;3086;48.802;9.394;2023-02-28T20:04:53;19.33;;;12.53;;
6111;SDS011;3086;48.802;9.394;2023-02-28T20:08:16;21.53;;;12.70;;
6111;SDS011;3086;48.802;9.394;2023-02-28T20:11:38;19.03;;;13.33;;
6111;SDS011;3086;48.802;9.394;2023-02-28T20:15:00;20.70;;;14.00;;
6111;SDS011;3086;48.802;9.394;2023-02-28T20:18:22;19.33;;;12.63;;
6111;SDS011;3086;48.802;9.394;2023-02-28T20:21:44;19.37;;;12.83;;
6111;SDS011;3086;48.802;9.394;2023-02-28T20:25:06;20.03;;;14.00;;
6111;SDS011;3086;48.802;9.394;2023-02-28T20:28:32;21.00;;;13.60;;
6111;SDS011;3086;48.802;9.394;2023-02-28T20:31:55;23.20;;;14.87;;
6111;SDS011;3086;48.802;9.394;2023-02-28T20:35:17;24.83;;;14.00;;
6111;SDS011;3086;48.802;9.394;2023-02-28T20:38:39;20.20;;;13.53;;
6111;SDS011;3086;48.802;9.394;2023-02-28T20:42:00;22.20;;;14.83;;
6111;SDS011;3086;48.802;9.394;2023-02-28T20:45:22;23.37;;;13.90;;
6111;SDS011;3086;48.802;9.394;2023-02-28T20:48:45;21.30;;;13.60;;
6111;SDS011;3086;48.802;9.394;2023-02-28T20:52:07;25.07;;;15.63;;
6111;SDS011;3086;48.802;9.394;2023-02-28T20:55:28;19.23;;;13.30;;
6111;SDS011;3086;48.802;9.394;2023-02-28T20:58:51;23.57;;;15.00;;
6111;SDS011;3086;48.802;9.394;2023-02-28T21:02:15;22.83;;;15.13;;
6111;SDS011;3086;48.802;9.394;2023-02-28T21:05:38;21.17;;;14.77;;
6111;SDS011;3086;48.802;9.394;2023-02-28T21:08:59;19.83;;;12.73;;
6111;SDS011;3086;48.802;9.394;2023-02-28T21:12:21;38.70;;;22.50;;
6111;SDS011;3086;48.802;9.394;2023-02-28T21:15:45;19.07;;;13.00;;
6111;SDS011;3086;48.802;9.394;2023-02-28T21:19:06;18.10;;;12.93;;